Time;durP1;ratioP1;P1;durP2;ratioP2;P2;SDS_P1;SDS_P2;PMS_P1;PMS_P2;Temp;Humidity;BMP_temperature;BMP_pressure;BME280_temperature;BME280_humidity;BME280_pressure;Samples;Min_cycle;Max_cycle;Signal;HPM_P1;HPM_P2
2022/10/01 00:01:41;;;;;;;9.47;4.60;;;;;;;7.97;96.12;100539.09;5054159;28;20442;-69
2022/10/01 00:04:07;;;;;;;9.83;4.50;;;;;;;7.95;96.18;100535.06;5053374;28;20892;-70
2022/10/01 00:06:34;;;;;;;8.00;4.30;;;;;;;7.90;96.81;100532.41;5054096;28;20521;-70
2022/10/01 00:09:00;;;;;;;10.60;4.87;;;;;;;7.87;98.10;100530.28;5041874;28;20517;-70
2022/10/01 00:11:27;;;;;;;8.40;3.83;;;;;;;7.95;97.78;100530.47;5037867;28;20525;-70
2022/10/01 00:13:54;;;;;;;8.10;4.40;;;;;;;7.96;98.00;100526.66;5053857;28;20478;-70
2022/10/01 00:16:22;;;;;;;9.13;4.70;;;;;;;7.97;98.62;100522.91;5053877;28;20539;-69
2022/10/01 00:18:52;;;;;;;8.13;4.30;;;;;;;7.95;99.35;100525.06;5052846;28;20557;-69
2022/10/01 00:21:21;;;;;;;10.87;4.83;;;;;;;7.92;99.74;100524.81;5053828;28;20470;-69
2022/10/01 00:23:48;;;;;;;9.37;4.70;;;;;;;7.92;100.00;100519.44;5053733;28;20509;-69
2022/10/01 00:26:16;;;;;;;10.20;4.53;;;;;;;7.92;100.00;100525.63;5053504;28;20472;-70
2022/10/01 00:28:45;;;;;;;6.80;3.70;;;;;;;7.93;100.00;100526.44;5045637;28;20513;-69
2022/10/01 00:31:13;;;;;;;9.27;4.83;;;;;;;7.91;100.00;100526.72;5033806;28;20884;-69
2022/10/01 00:33:39;;;;;;;7.80;4.27;;;;;;;7.93;100.00;100523.75;5042156;28;20498;-70
2022/10/01 00:36:08;;;;;;;9.13;4.87;;;;;;;7.93;100.00;100515.66;5053578;28;20816;-70
2022/10/01 00:38:36;;;;;;;9.67;5.10;;;;;;;7.83;99.10;100506.59;5045779;28;20447;-70
2022/10/01 00:41:04;;;;;;;13.03;6.30;;;;;;;7.88;98.72;100510.28;5044660;28;21395;-69
2022/10/01 00:43:32;;;;;;;10.53;5.40;;;;;;;7.83;97.71;100503.06;5052354;28;20458;-70
2022/10/01 00:46:03;;;;;;;11.27;5.43;;;;;;;7.80;97.55;100507.16;5033518;28;20450;-70
2022/10/01 00:48:33;;;;;;;11.00;5.23;;;;;;;7.76;97.77;100505.31;5033824;28;20451;-69
2022/10/01 00:51:01;;;;;;;14.40;6.60;;;;;;;7.72;98.49;100494.28;5052201;28;20446;-70
2022/10/01 00:53:29;;;;;;;10.67;5.30;;;;;;;7.76;98.44;100492.63;5047139;28;20478;-69
2022/10/01 00:55:58;;;;;;;11.83;5.77;;;;;;;7.80;99.37;100499.06;5044270;28;20521;-70
2022/10/01 00:58:26;;;;;;;11.33;5.03;;;;;;;7.84;100.00;100494.72;5051876;28;20490;-70
2022/10/01 01:00:55;;;;;;;12.40;5.87;;;;;;;7.86;100.00;100491.72;5050810;28;20470;-70
2022/10/01 01:03:22;;;;;;;10.40;4.63;;;;;;;7.94;100.00;100488.41;5044301;28;20474;-70
2022/10/01 01:05:49;;;;;;;12.17;6.20;;;;;;;7.94;100.00;100487.59;5045057;28;20512;-70
2022/10/01 01:08:16;;;;;;;8.47;4.87;;;;;;;7.98;100.00;100492.13;5042435;28;20451;-70
2022/10/01 01:10:53;;;;;;;10.07;6.00;;;;;;;7.95;100.00;100486.50;5051526;28;20515;-75
2022/10/01 01:13:25;;;;;;;9.57;5.67;;;;;;;7.98;100.00;100483.25;5050596;28;20481;-72
2022/10/01 01:15:58;;;;;;;14.00;6.00;;;;;;;8.04;100.00;100482.09;5051403;28;20450;-69
2022/10/01 01:18:31;;;;;;;10.23;5.43;;;;;;;8.07;100.00;100481.53;5042537;28;20466;-69
2022/10/01 01:21:12;;;;;;;11.13;5.47;;;;;;;8.08;100.00;100480.44;5049536;28;20466;-69
2022/10/01 01:24:08;;;;;;;12.37;5.90;;;;;;;8.03;100.00;100477.78;5040003;28;20517;-69
2022/10/01 01:26:45;;;;;;;8.23;4.80;;;;;;;8.03;100.00;100469.69;5028045;28;20454;-69
2022/10/01 01:29:20;;;;;;;8.37;4.40;;;;;;;8.05;100.00;100471.00;5048476;28;20458;-69
2022/10/01 01:31:48;;;;;;;10.93;5.33;;;;;;;8.01;99.33;100466.47;5048716;28;20454;-69
2022/10/01 01:34:21;;;;;;;12.23;6.00;;;;;;;8.03;99.10;100461.59;5046026;28;20485;-69
2022/10/01 01:36:53;;;;;;;10.80;5.37;;;;;;;7.99;99.34;100465.97;5056125;28;20501;-69
2022/10/01 01:39:22;;;;;;;9.60;4.90;;;;;;;7.97;100.00;100462.72;5055188;28;20464;-69
2022/10/01 01:41:54;;;;;;;8.70;4.87;;;;;;;8.00;100.00;100454.88;5052074;28;20467;-69
2022/10/01 01:44:27;;;;;;;7.43;4.27;;;;;;;8.00;100.00;100446.78;5055529;28;20486;-69
2022/10/01 01:46:56;;;;;;;8.97;4.63;;;;;;;8.03;100.00;100446.22;5051889;28;20454;-69
2022/10/01 01:49:23;;;;;;;9.60;5.00;;;;;;;8.14;100.00;100449.59;5053582;28;20955;-69
2022/10/01 01:51:53;;;;;;;9.47;4.77;;;;;;;8.17;100.00;100442.84;5056134;28;20523;-69
2022/10/01 01:54:20;;;;;;;9.13;5.33;;;;;;;8.28;100.00;100445.13;5051372;28;20482;-69
2022/10/01 01:56:48;;;;;;;10.77;5.60;;;;;;;8.31;100.00;100447.22;5055093;28;20482;-69
2022/10/01 01:59:17;;;;;;;13.33;5.43;;;;;;;8.40;100.00;100452.03;5056044;28;20492;-69
2022/10/01 02:01:48;;;;;;;13.40;6.20;;;;;;;8.45;100.00;100449.25;5053132;28;20549;-68
2022/10/01 02:04:22;;;;;;;9.53;5.60;;;;;;;8.46;100.00;100450.88;5053011;28;20485;-69
2022/10/01 02:07:10;;;;;;;11.03;4.80;;;;;;;8.52;100.00;100444.31;5056124;28;20922;-69
2022/10/01 02:09:47;;;;;;;12.77;6.13;;;;;;;8.57;100.00;100444.22;5050385;28;20462;-69
2022/10/01 02:12:23;;;;;;;12.50;6.10;;;;;;;8.61;100.00;100445.25;5054794;28;20454;-69
2022/10/01 02:14:54;;;;;;;11.57;6.10;;;;;;;8.61;100.00;100450.66;5053880;28;20496;-69
2022/10/01 02:17:32;;;;;;;10.23;5.87;;;;;;;8.66;100.00;100447.09;5052787;28;20485;-69
2022/10/01 02:20:05;;;;;;;10.50;5.17;;;;;;;8.70;100.00;100448.13;5055079;28;20488;-69
2022/10/01 02:22:42;;;;;;;10.33;5.57;;;;;;;8.67;100.00;100445.97;5053546;28;20527;-69
2022/10/01 02:25:11;;;;;;;10.40;5.20;;;;;;;8.66;100.00;100439.78;5050460;28;20958;-69
2022/10/01 02:27:43;;;;;;;11.57;4.83;;;;;;;8.63;100.00;100443.06;5045406;28;20881;-69
2022/10/01 02:30:11;;;;;;;13.50;6.00;;;;;;;8.57;100.00;100436.94;5055439;28;20486;-69
2022/10/01 02:32:42;;;;;;;15.47;5.87;;;;;;;8.54;100.00;100432.13;5054281;28;20490;-68
2022/10/01 02:35:12;;;;;;;12.23;5.70;;;;;;;8.49;100.00;100429.47;5054026;28;20446;-68
2022/10/01 02:37:42;;;;;;;10.03;5.53;;;;;;;8.51;100.00;100435.41;5051047;28;20482;-69
2022/10/01 02:40:12;;;;;;;10.00;5.80;;;;;;;8.51;100.00;100440.00;5039148;28;20951;-69
2022/10/01 02:42:41;;;;;;;10.63;4.83;;;;;;;8.53;100.00;100435.09;5052003;28;20521;-69
2022/10/01 02:45:09;;;;;;;11.07;5.53;;;;;;;8.57;100.00;100436.13;5054378;28;20458;-69
2022/10/01 02:47:40;;;;;;;10.80;5.10;;;;;;;8.63;100.00;100440.34;5050881;28;20894;-69
2022/10/01 02:50:08;;;;;;;10.40;5.13;;;;;;;8.64;100.00;100439.28;5053417;28;20462;-68
2022/10/01 02:55:27;;;;;;;15.03;6.30;;;;;;;8.67;100.00;100422.47;4993454;28;20461;-69
2022/10/01 02:57:53;;;;;;;8.80;4.53;;;;;;;8.71;100.00;100414.59;4987757;28;20473;-69
2022/10/01 03:00:20;;;;;;;10.23;5.20;;;;;;;8.76;100.00;100425.34;4991295;28;20522;-69
2022/10/01 03:02:49;;;;;;;12.43;6.57;;;;;;;8.73;100.00;100415.13;4978157;28;20265;-69
2022/10/01 03:05:16;;;;;;;12.13;6.40;;;;;;;8.77;100.00;100422.34;4976008;28;20470;-69
2022/10/01 03:07:43;;;;;;;13.23;6.10;;;;;;;8.80;100.00;100412.84;4992199;28;20457;-69
2022/10/01 03:10:11;;;;;;;8.90;5.60;;;;;;;8.77;100.00;100416.16;4992140;28;20489;-69
2022/10/01 03:12:43;;;;;;;11.20;5.33;;;;;;;8.76;100.00;100411.81;4987953;28;21032;-69
2022/10/01 03:15:11;;;;;;;10.73;5.43;;;;;;;8.75;100.00;100408.31;4991399;28;20576;-69
2022/10/01 03:17:37;;;;;;;12.90;6.27;;;;;;;8.68;100.00;100407.13;4992614;28;20488;-69
2022/10/01 03:20:06;;;;;;;10.90;5.93;;;;;;;8.71;100.00;100407.31;4992201;28;20504;-69
2022/10/01 03:22:33;;;;;;;9.53;5.20;;;;;;;8.74;100.00;100397.84;4988950;28;21079;-73
2022/10/01 03:24:59;;;;;;;12.67;5.87;;;;;;;8.76;100.00;100396.44;4993050;28;20449;-69
2022/10/01 03:27:26;;;;;;;10.97;5.77;;;;;;;8.85;100.00;100399.25;5038002;28;20536;-69
2022/10/01 03:29:52;;;;;;;10.70;5.60;;;;;;;8.89;100.00;100392.19;5046629;28;20461;-69
2022/10/01 03:32:19;;;;;;;12.17;5.47;;;;;;;8.99;100.00;100391.25;5053240;28;20927;-69
2022/10/01 03:34:47;;;;;;;10.53;5.83;;;;;;;8.97;100.00;100390.72;5053559;28;20454;-69
2022/10/01 03:37:14;;;;;;;11.53;5.13;;;;;;;9.04;100.00;100389.25;5052739;28;20494;-69
2022/10/01 03:39:41;;;;;;;9.67;5.57;;;;;;;9.05;100.00;100377.34;5042203;28;20466;-69
2022/10/01 03:42:08;;;;;;;16.10;6.57;;;;;;;9.13;100.00;100370.47;5072809;22;20498;-72
2022/10/01 03:44:34;;;;;;;9.40;5.07;;;;;;;9.17;100.00;100365.28;5052458;28;20519;-70
2022/10/01 03:47:00;;;;;;;11.33;5.43;;;;;;;9.13;100.00;100367.75;5053727;28;20466;-70
2022/10/01 03:49:27;;;;;;;12.53;6.07;;;;;;;9.14;100.00;100372.06;5051252;28;20470;-72
2022/10/01 03:51:54;;;;;;;11.00;6.33;;;;;;;9.20;100.00;100373.56;5053993;28;20532;-71
2022/10/01 03:54:21;;;;;;;11.53;6.30;;;;;;;9.23;100.00;100375.69;5061184;28;20954;-71
2022/10/01 03:56:48;;;;;;;11.47;5.73;;;;;;;9.22;100.00;100374.09;5056085;28;20474;-73
2022/10/01 03:59:14;;;;;;;11.83;5.83;;;;;;;9.25;100.00;100370.81;5051504;28;20522;-71
2022/10/01 04:01:41;;;;;;;12.67;6.83;;;;;;;9.22;100.00;100367.88;5053027;28;20484;-71
2022/10/01 04:04:07;;;;;;;10.10;4.97;;;;;;;9.17;99.20;100371.47;5051063;28;20469;-71
2022/10/01 04:06:34;;;;;;;10.30;6.07;;;;;;;9.11;99.65;100369.94;5053530;28;20508;-71
2022/10/01 04:09:00;;;;;;;10.23;5.37;;;;;;;9.07;98.67;100361.66;5050411;28;20454;-71
2022/10/01 04:11:29;;;;;;;11.40;5.10;;;;;;;9.07;99.00;100361.66;5053070;28;20909;-69
2022/10/01 04:13:56;;;;;;;13.47;6.03;;;;;;;9.12;99.36;100357.22;5051665;28;20569;-69
2022/10/01 04:16:23;;;;;;;13.57;7.03;;;;;;;9.10;100.00;100360.25;5050974;28;20986;-70
2022/10/01 04:18:49;;;;;;;12.63;6.30;;;;;;;9.14;100.00;100361.25;5052140;28;20486;-69
2022/10/01 04:21:16;;;;;;;12.50;5.87;;;;;;;9.19;100.00;100353.06;5051443;28;20474;-70
2022/10/01 04:23:42;;;;;;;18.20;5.13;;;;;;;9.22;100.00;100347.06;5052652;28;20952;-70
2022/10/01 04:26:09;;;;;;;15.20;6.23;;;;;;;9.19;100.00;100347.66;5053406;28;20854;-70
2022/10/01 04:28:37;;;;;;;10.30;5.30;;;;;;;9.25;100.00;100346.47;5049126;28;20462;-71
2022/10/01 04:33:48;;;;;;;8.90;5.67;;;;;;;9.25;100.00;100341.06;5053108;28;20469;-69
2022/10/01 04:36:14;;;;;;;14.10;6.03;;;;;;;9.22;100.00;100347.06;5051890;28;20470;-69
2022/10/01 04:38:41;;;;;;;9.60;5.37;;;;;;;9.20;100.00;100343.84;5051833;28;20509;-70
2022/10/01 04:41:08;;;;;;;14.57;6.20;;;;;;;9.17;100.00;100341.75;5052319;28;20494;-70
2022/10/01 04:43:35;;;;;;;21.17;5.97;;;;;;;9.20;100.00;100338.44;5052367;28;20497;-70
2022/10/01 04:46:02;;;;;;;10.47;6.23;;;;;;;9.15;100.00;100340.44;5051421;28;20466;-70
2022/10/01 04:48:29;;;;;;;12.20;6.50;;;;;;;9.15;100.00;100332.31;5049950;28;20457;-70
2022/10/01 04:50:55;;;;;;;11.53;5.70;;;;;;;9.21;100.00;100341.94;5050467;28;21069;-70
2022/10/01 04:53:22;;;;;;;12.23;4.87;;;;;;;9.22;100.00;100341.66;5052925;28;20461;-69
2022/10/01 04:55:48;;;;;;;11.10;5.53;;;;;;;9.25;100.00;100332.13;5051534;28;20959;-69
2022/10/01 04:58:14;;;;;;;10.90;5.20;;;;;;;9.30;100.00;100338.28;5052595;28;20490;-69
2022/10/01 05:00:41;;;;;;;9.87;5.37;;;;;;;9.31;100.00;100333.66;5051724;28;20462;-70
2022/10/01 05:03:09;;;;;;;10.73;5.30;;;;;;;9.37;100.00;100329.75;5051906;28;20527;-70
2022/10/01 05:05:37;;;;;;;11.13;5.20;;;;;;;9.36;100.00;100320.06;5051950;28;20462;-69
2022/10/01 05:08:04;;;;;;;9.23;4.57;;;;;;;9.41;100.00;100329.97;5049787;28;20458;-69
2022/10/01 05:10:31;;;;;;;10.40;5.10;;;;;;;9.45;100.00;100329.06;5052221;28;20454;-69
2022/10/01 05:13:01;;;;;;;10.53;5.93;;;;;;;9.44;100.00;100321.25;5052136;28;20469;-69
2022/10/01 05:15:28;;;;;;;13.83;5.63;;;;;;;9.46;100.00;100314.44;5052720;28;20470;-69
2022/10/01 05:17:55;;;;;;;9.63;5.67;;;;;;;9.48;100.00;100317.66;5050157;28;20481;-71
2022/10/01 05:20:25;;;;;;;9.07;5.03;;;;;;;9.46;100.00;100324.44;5051840;28;20522;-70
2022/10/01 05:22:53;;;;;;;9.20;4.97;;;;;;;9.46;99.27;100313.63;5051095;28;20520;-68
2022/10/01 05:25:20;;;;;;;8.53;5.07;;;;;;;9.42;98.77;100318.84;5051087;28;20458;-68
2022/10/01 05:27:46;;;;;;;9.77;4.53;;;;;;;9.42;97.53;100321.53;5051065;28;20466;-69
2022/10/01 05:30:17;;;;;;;8.97;4.00;;;;;;;9.42;97.47;100312.63;5051780;28;20454;-70
2022/10/01 05:32:54;;;;;;;9.70;5.97;;;;;;;9.42;97.03;100315.34;5046634;28;20559;-68
2022/10/01 05:35:20;;;;;;;9.70;4.83;;;;;;;9.44;97.71;100305.03;5036441;28;20497;-70
2022/10/01 05:37:52;;;;;;;16.17;5.53;;;;;;;9.43;99.27;100308.81;5049794;28;20466;-71
2022/10/01 05:40:19;;;;;;;8.90;4.90;;;;;;;9.50;99.57;100306.53;5051413;28;20967;-72
2022/10/01 05:42:45;;;;;;;13.20;5.30;;;;;;;9.52;99.93;100301.66;5051786;28;21029;-72
2022/10/01 05:45:12;;;;;;;8.17;4.77;;;;;;;9.61;99.77;100302.53;5052051;28;20863;-70
2022/10/01 05:47:41;;;;;;;9.67;4.03;;;;;;;9.62;100.00;100301.44;5048344;28;20458;-69
2022/10/01 05:50:08;;;;;;;12.13;5.30;;;;;;;9.63;100.00;100284.09;5050555;28;20462;-69
2022/10/01 05:52:34;;;;;;;7.90;4.10;;;;;;;9.67;100.00;100284.31;5050900;28;20560;-68
2022/10/01 05:55:02;;;;;;;9.03;4.70;;;;;;;9.73;99.96;100278.47;5051014;28;20541;-69
2022/10/01 05:57:29;;;;;;;9.97;4.77;;;;;;;9.85;99.71;100275.25;5051387;28;20955;-68
2022/10/01 05:59:56;;;;;;;9.90;4.73;;;;;;;9.90;99.36;100275.13;5050569;28;20497;-68
2022/10/01 06:02:22;;;;;;;8.03;4.23;;;;;;;9.96;98.76;100267.69;5050165;28;20986;-69
2022/10/01 06:04:48;;;;;;;10.33;4.70;;;;;;;9.96;98.96;100257.72;5040391;28;20513;-69
2022/10/01 06:07:15;;;;;;;9.27;4.70;;;;;;;10.01;99.06;100251.38;5051509;28;20580;-68
2022/10/01 06:09:41;;;;;;;13.00;5.47;;;;;;;10.03;98.69;100252.66;5051025;28;20454;-69
2022/10/01 06:12:09;;;;;;;8.87;4.37;;;;;;;10.03;98.19;100258.06;5051236;28;20481;-69
2022/10/01 06:14:35;;;;;;;7.07;3.87;;;;;;;10.07;97.31;100252.84;5052347;28;20966;-69
2022/10/01 06:17:02;;;;;;;8.80;4.60;;;;;;;10.03;96.30;100244.53;5050817;28;20462;-69
2022/10/01 06:19:28;;;;;;;10.60;4.80;;;;;;;10.02;96.91;100256.47;5056133;28;20478;-69
2022/10/01 06:21:55;;;;;;;9.33;3.97;;;;;;;10.03;96.73;100247.25;5054779;28;21013;-69
2022/10/01 06:24:21;;;;;;;9.40;4.50;;;;;;;10.05;97.28;100244.25;5056179;28;20503;-69
2022/10/01 06:26:48;;;;;;;7.37;4.77;;;;;;;10.10;97.29;100244.13;5053466;28;20531;-68
2022/10/01 06:29:15;;;;;;;14.57;5.60;;;;;;;10.15;97.16;100233.19;5055176;28;20493;-68
2022/10/01 06:31:42;;;;;;;12.80;5.20;;;;;;;10.19;96.98;100234.19;5054292;28;20480;-68
2022/10/01 06:34:08;;;;;;;9.70;4.47;;;;;;;10.28;96.75;100237.78;5055967;28;20449;-69
2022/10/01 06:36:34;;;;;;;10.47;4.93;;;;;;;10.36;96.47;100238.94;5053473;28;20458;-68
2022/10/01 06:39:01;;;;;;;7.77;4.00;;;;;;;10.34;96.11;100231.13;5055301;28;20485;-69
2022/10/01 06:41:28;;;;;;;10.90;4.67;;;;;;;10.37;95.87;100228.91;5055010;28;20512;-68
2022/10/01 06:43:54;;;;;;;9.03;5.10;;;;;;;10.39;96.99;100226.69;5055547;28;20446;-69
2022/10/01 06:46:22;;;;;;;9.00;4.20;;;;;;;10.43;96.44;100216.84;5048644;28;20633;-69
2022/10/01 06:48:48;;;;;;;10.07;4.63;;;;;;;10.48;96.42;100212.09;5035785;28;20439;-70
2022/10/01 06:51:15;;;;;;;9.43;5.10;;;;;;;10.48;95.51;100208.59;5042751;28;20485;-69
2022/10/01 06:53:40;;;;;;;9.37;4.07;;;;;;;10.51;95.94;100202.56;5054280;28;20469;-70
2022/10/01 06:56:07;;;;;;;8.17;4.20;;;;;;;10.50;96.24;100196.34;5054339;28;20882;-70
2022/10/01 06:58:33;;;;;;;8.83;4.50;;;;;;;10.51;95.65;100199.84;5054747;28;20305;-69
2022/10/01 07:01:01;;;;;;;8.10;4.27;;;;;;;10.52;95.05;100191.41;5054744;28;20482;-69
2022/10/01 07:03:30;;;;;;;14.43;5.30;;;;;;;10.58;94.09;100194.78;5055487;28;20484;-69
2022/10/01 07:06:02;;;;;;;8.27;3.73;;;;;;;10.62;94.51;100193.06;5053747;28;20469;-70
2022/10/01 07:08:28;;;;;;;11.17;4.87;;;;;;;10.63;93.98;100194.69;5053694;28;21041;-69
2022/10/01 07:10:59;;;;;;;8.50;4.40;;;;;;;10.63;94.28;100191.97;5053285;28;20512;-70
2022/10/01 07:13:25;;;;;;;10.30;4.10;;;;;;;10.67;94.56;100184.00;5052558;28;20879;-69
2022/10/01 07:15:52;;;;;;;12.60;3.57;;;;;;;10.69;94.17;100176.38;5053145;28;20462;-70
2022/10/01 07:18:18;;;;;;;7.13;3.93;;;;;;;10.78;93.95;100175.28;5053885;28;20462;-69
2022/10/01 07:20:46;;;;;;;13.90;5.50;;;;;;;10.82;93.83;100173.56;5052433;28;20453;-70
2022/10/01 07:23:14;;;;;;;6.97;3.67;;;;;;;10.84;93.66;100156.97;5050413;28;20870;-69
2022/10/01 07:25:41;;;;;;;8.73;4.30;;;;;;;10.93;94.11;100159.72;5053345;28;20466;-70
2022/10/01 07:28:14;;;;;;;9.60;5.20;;;;;;;11.04;93.19;100150.22;5051450;28;20480;-70
2022/10/01 07:30:41;;;;;;;9.17;3.90;;;;;;;11.13;93.26;100142.91;5052393;28;20497;-69
2022/10/01 07:33:07;;;;;;;9.43;4.77;;;;;;;11.18;92.51;100141.94;5050603;28;20458;-69
2022/10/01 07:35:36;;;;;;;10.20;4.37;;;;;;;11.25;92.34;100140.38;5052479;28;20871;-69
2022/10/01 07:38:06;;;;;;;8.50;3.50;;;;;;;11.36;91.83;100143.56;5052023;28;20597;-69
2022/10/01 07:40:32;;;;;;;11.00;4.20;;;;;;;11.41;91.68;100146.13;5050710;28;21037;-68
2022/10/01 07:42:59;;;;;;;9.40;4.57;;;;;;;11.38;92.14;100144.06;5052515;28;20814;-69
2022/10/01 07:45:26;;;;;;;7.27;3.50;;;;;;;11.54;91.88;100144.38;5053877;28;20485;-72
2022/10/01 07:47:54;;;;;;;7.00;3.80;;;;;;;11.62;91.36;100140.88;5052782;28;20519;-71
2022/10/01 07:50:20;;;;;;;11.90;4.70;;;;;;;11.67;91.17;100135.28;5051401;28;20883;-72
2022/10/01 07:52:50;;;;;;;10.10;4.00;;;;;;;11.77;90.11;100129.53;5053156;28;20494;-73
2022/10/01 07:55:18;;;;;;;7.23;4.43;;;;;;;11.84;90.33;100135.31;5051498;28;20454;-73
2022/10/01 07:57:50;;;;;;;9.70;4.33;;;;;;;11.92;90.42;100130.22;5053205;28;20944;-71
2022/10/01 08:00:16;;;;;;;9.20;3.90;;;;;;;11.97;89.93;100121.91;5054450;28;20481;-73
2022/10/01 08:02:46;;;;;;;13.90;4.87;;;;;;;12.06;88.78;100131.63;5053767;28;20466;-71
2022/10/01 08:05:19;;;;;;;15.57;5.20;;;;;;;12.13;87.49;100125.72;5054062;28;20450;-71
2022/10/01 08:07:46;;;;;;;9.80;4.70;;;;;;;12.11;88.09;100123.31;5053126;28;20430;-71
2022/10/01 08:10:13;;;;;;;7.70;3.77;;;;;;;12.16;88.06;100121.56;5052755;28;20462;-70
2022/10/01 08:12:42;;;;;;;7.93;4.23;;;;;;;12.19;88.38;100121.72;5053656;28;20860;-71
2022/10/01 08:15:10;;;;;;;11.93;4.57;;;;;;;12.22;87.51;100107.50;5054342;28;20536;-71
2022/10/01 08:17:36;;;;;;;7.70;4.00;;;;;;;12.21;87.77;100105.88;5053037;28;20533;-71
2022/10/01 08:20:03;;;;;;;8.07;4.10;;;;;;;12.27;87.03;100112.75;5052791;28;20522;-70
2022/10/01 08:22:30;;;;;;;7.67;3.57;;;;;;;12.31;86.82;100108.25;5053333;28;20462;-70
2022/10/01 08:24:56;;;;;;;8.87;4.03;;;;;;;12.35;86.11;100103.78;5053574;28;20458;-70
2022/10/01 08:27:23;;;;;;;6.33;3.23;;;;;;;12.39;85.61;100095.75;5053963;28;20449;-71
2022/10/01 08:29:51;;;;;;;8.20;3.80;;;;;;;12.44;85.45;100094.78;5051849;28;20959;-70
2022/10/01 08:32:18;;;;;;;9.17;4.13;;;;;;;12.46;86.18;100085.19;5053051;28;21069;-70
2022/10/01 08:34:45;;;;;;;8.90;3.83;;;;;;;12.55;86.08;100096.81;5052908;28;20466;-71
2022/10/01 08:37:13;;;;;;;6.80;3.10;;;;;;;12.64;85.88;100083.19;5052409;28;20463;-71
2022/10/01 08:39:39;;;;;;;6.67;3.67;;;;;;;12.75;86.01;100075.47;5052305;28;20920;-70
2022/10/01 08:42:15;;;;;;;8.10;3.93;;;;;;;12.79;85.08;100079.13;5051193;28;20489;-70
2022/10/01 08:44:45;;;;;;;8.57;3.50;;;;;;;12.83;84.83;100080.06;5052965;28;20922;-72
2022/10/01 08:47:17;;;;;;;21.67;4.13;;;;;;;12.81;84.00;100072.25;5046891;28;20863;-71
2022/10/01 08:49:48;;;;;;;10.27;3.50;;;;;;;12.81;84.40;100074.97;5062336;28;20441;-73
2022/10/01 08:52:21;;;;;;;6.17;3.40;;;;;;;12.83;84.77;100067.25;5052652;28;21002;-72
2022/10/01 08:54:53;;;;;;;7.03;3.40;;;;;;;12.85;84.72;100067.75;5052769;28;20458;-72
2022/10/01 08:57:23;;;;;;;9.20;3.90;;;;;;;12.95;85.04;100060.34;5039867;28;20466;-66
2022/10/01 08:59:53;;;;;;;7.87;3.20;;;;;;;13.04;83.87;100061.88;5050651;28;20493;-71
2022/10/01 09:02:24;;;;;;;7.50;3.87;;;;;;;13.05;83.69;100057.22;5061776;28;20485;-71
2022/10/01 09:05:00;;;;;;;6.50;2.40;;;;;;;13.15;84.25;100051.41;5050629;28;20466;-73
2022/10/01 09:07:49;;;;;;;8.00;3.20;;;;;;;13.27;83.62;100045.25;5035892;28;20532;-72
2022/10/01 09:10:29;;;;;;;7.33;3.80;;;;;;;13.43;82.82;100032.66;5053042;28;20780;-69
2022/10/01 09:13:17;;;;;;;8.33;3.17;;;;;;;13.55;81.37;100038.16;5050480;28;20461;-69
2022/10/01 09:15:53;;;;;;;7.80;3.40;;;;;;;13.56;82.44;100022.59;5045810;28;20505;-69
2022/10/01 09:18:30;;;;;;;7.20;3.30;;;;;;;13.60;82.87;100018.88;5048336;28;20450;-70
2022/10/01 09:20:58;;;;;;;8.37;3.67;;;;;;;13.63;84.40;100007.34;5046284;28;20555;-68
2022/10/01 09:23:28;;;;;;;8.07;3.23;;;;;;;13.67;84.00;100015.59;5047431;28;20459;-69
2022/10/01 09:25:57;;;;;;;14.60;3.00;;;;;;;13.62;85.15;100013.09;5048937;28;20454;-68
2022/10/01 09:28:27;;;;;;;6.20;3.17;;;;;;;13.62;85.59;100015.81;5054219;28;20549;-68
2022/10/01 09:30:57;;;;;;;7.60;3.43;;;;;;;13.58;85.53;100015.69;5054451;28;20511;-68
2022/10/01 09:33:30;;;;;;;5.87;2.60;;;;;;;13.59;86.75;100008.31;5051789;28;20461;-69
2022/10/01 09:36:06;;;;;;;7.20;3.40;;;;;;;13.52;86.05;100010.81;5049148;28;20474;-69
2022/10/01 09:38:36;;;;;;;5.90;3.03;;;;;;;13.36;87.40;99997.00;5047875;28;20993;-70
2022/10/01 09:41:02;;;;;;;5.40;2.63;;;;;;;13.34;86.04;99993.84;5050157;28;20502;-69
2022/10/01 09:43:31;;;;;;;6.10;2.33;;;;;;;13.22;88.02;99994.56;5052049;28;20886;-69
2022/10/01 09:45:58;;;;;;;8.73;3.03;;;;;;;13.14;89.81;99987.25;5049655;28;20462;-69
2022/10/01 09:48:32;;;;;;;5.97;2.90;;;;;;;13.03;92.42;99986.06;5046625;28;20466;-69
2022/10/01 09:51:06;;;;;;;9.67;3.17;;;;;;;13.04;91.18;99979.50;5050871;28;20827;-68
2022/10/01 09:53:40;;;;;;;5.93;2.90;;;;;;;13.02;91.65;99974.41;5054314;28;20503;-68
2022/10/01 09:56:13;;;;;;;6.20;2.63;;;;;;;13.03;91.42;99967.03;5056733;28;20441;-69
2022/10/01 09:58:42;;;;;;;6.33;2.83;;;;;;;12.96;92.51;99964.84;5054449;28;20466;-68
2022/10/01 10:01:20;;;;;;;6.23;3.00;;;;;;;12.87;94.96;99964.91;5055331;28;20490;-68
2022/10/01 10:03:57;;;;;;;8.60;3.90;;;;;;;12.85;94.60;99969.91;5053236;28;20883;-68
2022/10/01 10:06:27;;;;;;;7.80;3.00;;;;;;;12.76;95.26;99963.72;5053474;28;20954;-68
2022/10/01 10:08:55;;;;;;;5.60;2.73;;;;;;;12.65;97.31;99962.50;5056081;28;20457;-68
2022/10/01 10:11:24;;;;;;;5.83;2.63;;;;;;;12.60;97.96;99960.00;5054743;28;20501;-68
2022/10/01 10:13:53;;;;;;;7.80;2.47;;;;;;;12.54;98.15;99962.13;5054064;28;20492;-68
2022/10/01 10:16:25;;;;;;;6.33;2.80;;;;;;;12.42;98.87;99963.94;5052012;28;20943;-68
2022/10/01 10:18:55;;;;;;;7.00;2.60;;;;;;;12.40;98.78;99971.63;5055510;28;20462;-68
2022/10/01 10:21:24;;;;;;;5.60;2.17;;;;;;;12.32;98.90;99960.47;5054845;28;20537;-67
2022/10/01 10:23:52;;;;;;;5.97;2.50;;;;;;;12.21;100.00;99964.69;5054535;28;20868;-67
2022/10/01 10:26:21;;;;;;;4.77;2.13;;;;;;;12.09;100.00;99949.09;5052681;28;20458;-68
2022/10/01 10:28:48;;;;;;;5.47;2.40;;;;;;;12.03;100.00;99955.81;5053672;28;20561;-68
2022/10/01 10:31:17;;;;;;;6.60;3.17;;;;;;;11.95;100.00;99951.22;5055139;28;20458;-67
2022/10/01 10:33:51;;;;;;;13.73;3.23;;;;;;;11.93;100.00;99947.25;5055471;28;20885;-66
2022/10/01 10:36:19;;;;;;;6.70;3.17;;;;;;;11.89;100.00;99955.25;5052581;28;20503;-67
2022/10/01 10:38:49;;;;;;;6.30;2.70;;;;;;;11.83;100.00;99951.94;5051974;28;20466;-66
2022/10/01 10:41:24;;;;;;;8.43;3.13;;;;;;;11.78;100.00;99946.66;5061762;22;20487;-71
2022/10/01 10:43:55;;;;;;;9.23;3.63;;;;;;;11.75;100.00;99933.72;5051015;28;20465;-72
2022/10/01 10:46:25;;;;;;;5.47;2.60;;;;;;;11.77;100.00;99945.03;5035591;28;20549;-73
2022/10/01 10:48:58;;;;;;;6.27;2.67;;;;;;;11.80;100.00;99955.25;5034831;28;20424;-73
2022/10/01 10:51:27;;;;;;;5.90;3.30;;;;;;;11.76;100.00;99948.88;5049889;28;20461;-73
2022/10/01 10:53:53;;;;;;;5.33;2.53;;;;;;;11.73;100.00;99938.69;5054070;28;20516;-73
2022/10/01 10:56:22;;;;;;;6.60;3.60;;;;;;;11.74;100.00;99944.91;5054857;28;20457;-73
2022/10/01 10:58:49;;;;;;;5.57;2.40;;;;;;;11.72;100.00;99950.63;5052195;28;20494;-73
2022/10/01 11:01:18;;;;;;;8.30;3.30;;;;;;;11.77;100.00;99944.25;5053703;28;20497;-73
2022/10/01 11:03:48;;;;;;;9.50;3.90;;;;;;;11.76;100.00;99943.44;5052897;28;20466;-74
2022/10/01 11:06:17;;;;;;;12.30;3.30;;;;;;;11.80;100.00;99921.91;5053823;28;20454;-74
2022/10/01 11:08:55;;;;;;;8.73;4.17;;;;;;;11.81;100.00;99931.63;5051450;28;20454;-74
2022/10/01 11:11:39;;;;;;;6.57;3.10;;;;;;;11.82;100.00;99925.06;5051606;28;20481;-73
2022/10/01 11:14:21;;;;;;;6.53;3.20;;;;;;;11.80;100.00;99922.69;5053973;28;20493;-74
2022/10/01 11:17:11;;;;;;;6.53;2.87;;;;;;;11.77;100.00;99917.09;5054444;28;20429;-74
2022/10/01 11:20:00;;;;;;;7.00;2.97;;;;;;;11.75;100.00;99924.78;5051966;28;20463;-74
2022/10/01 11:22:37;;;;;;;7.17;3.17;;;;;;;11.80;100.00;99919.19;5050032;28;21006;-73
2022/10/01 11:25:19;;;;;;;8.10;3.17;;;;;;;11.79;100.00;99904.03;5052473;28;20519;-74
2022/10/01 11:27:51;;;;;;;8.73;3.73;;;;;;;11.89;100.00;99909.13;5050742;28;20488;-74
2022/10/01 11:30:21;;;;;;;7.27;3.30;;;;;;;11.89;100.00;99906.41;5049843;28;20427;-74
2022/10/01 11:33:02;;;;;;;8.10;3.30;;;;;;;11.94;100.00;99902.72;5051873;28;20479;-74
2022/10/01 11:35:43;;;;;;;11.67;3.87;;;;;;;11.98;100.00;99900.94;5048687;28;20443;-73
2022/10/01 11:38:36;;;;;;;6.10;2.93;;;;;;;11.98;100.00;99906.38;5049067;28;20486;-74
2022/10/01 11:41:14;;;;;;;5.83;2.70;;;;;;;11.94;100.00;99908.94;5050590;28;20482;-73